Time;durP1;ratioP1;P1;durP2;ratioP2;P2;SDS_P1;SDS_P2;PMS_P1;PMS_P2;Temp;Humidity;BMP_temperature;BMP_pressure;BME280_temperature;BME280_humidity;BME280_pressure;Samples;Min_cycle;Max_cycle;Signal;HPM_P1;HPM_P2
2022/07/06 00:01:13;;;;;;;;;;;;;;;12.92;41.60;96255.56;5042162;28;20104;-67
2022/07/06 00:03:39;;;;;;;;;;;;;;;12.76;41.69;96259.22;5041610;28;20437;-68
2022/07/06 00:06:04;;;;;;;;;;;;;;;12.56;42.24;96258.81;5041933;28;19972;-68
2022/07/06 00:08:29;;;;;;;;;;;;;;;12.45;42.43;96256.53;5040799;28;19985;-68
2022/07/06 00:10:54;;;;;;;;;;;;;;;12.15;42.63;96257.16;5041375;28;19996;-68
2022/07/06 00:13:20;;;;;;;;;;;;;;;11.88;43.78;96253.84;5040451;28;20027;-68
2022/07/06 00:15:45;;;;;;;;;;;;;;;11.94;43.78;96257.69;5041456;28;20108;-68
2022/07/06 00:18:10;;;;;;;;;;;;;;;11.84;43.50;96256.06;5041061;28;20212;-67
2022/07/06 00:20:35;;;;;;;;;;;;;;;11.87;43.85;96250.34;5041996;28;19975;-69
2022/07/06 00:23:01;;;;;;;;;;;;;;;11.85;43.46;96260.38;5041343;28;20128;-68
2022/07/06 00:25:26;;;;;;;;;;;;;;;11.23;45.13;96253.78;5041590;28;20013;-68
2022/07/06 00:27:51;;;;;;;;;;;;;;;11.52;44.49;96252.41;5041641;28;19997;-69
2022/07/06 00:30:16;;;;;;;;;;;;;;;10.79;45.98;96260.19;5040703;28;20377;-66
2022/07/06 00:32:41;;;;;;;;;;;;;;;10.56;46.52;96272.28;5042225;28;19965;-67
2022/07/06 00:35:07;;;;;;;;;;;;;;;9.95;48.21;96259.03;5040927;28;20024;-68
2022/07/06 00:37:32;;;;;;;;;;;;;;;9.48;50.14;96268.22;5041860;28;19976;-67
2022/07/06 00:39:57;;;;;;;;;;;;;;;9.25;50.97;96264.22;5041323;28;20433;-67
2022/07/06 00:42:24;;;;;;;;;;;;;;;9.21;50.90;96265.50;5041645;28;20102;-68
2022/07/06 00:44:49;;;;;;;;;;;;;;;9.39;50.88;96269.97;5041689;28;20275;-68
2022/07/06 00:47:14;;;;;;;;;;;;;;;9.67;49.55;96272.50;5041502;28;20199;-66
2022/07/06 00:52:23;;;;;;;;;;;;;;;9.66;49.83;96270.84;5041944;28;20066;-68
2022/07/06 00:54:49;;;;;;;;;;;;;;;9.56;50.32;96269.09;5041023;28;19993;-68
2022/07/06 00:57:14;;;;;;;;;;;;;;;9.78;49.48;96274.91;5041749;28;20353;-68
2022/07/06 00:59:39;;;;;;;;;;;;;;;9.79;49.36;96276.56;5040954;28;19993;-68
2022/07/06 01:02:04;;;;;;;;;;;;;;;9.88;49.91;96276.59;5041393;28;20060;-67
2022/07/06 01:04:30;;;;;;;;;;;;;;;9.90;49.94;96275.47;5041116;28;20251;-68
2022/07/06 01:06:55;;;;;;;;;;;;;;;9.94;49.58;96283.97;5039770;28;19999;-67
2022/07/06 01:09:20;;;;;;;;;;;;;;;9.72;49.62;96284.34;5041432;28;20432;-67
2022/07/06 01:11:46;;;;;;;;;;;;;;;9.55;50.69;96272.75;5040475;28;19993;-67
2022/07/06 01:14:11;;;;;;;;;;;;;;;9.62;50.49;96278.28;5040237;28;20418;-67
2022/07/06 01:16:37;;;;;;;;;;;;;;;9.49;50.58;96275.19;5040443;28;20460;-68
2022/07/06 01:19:02;;;;;;;;;;;;;;;9.51;50.69;96271.41;5040963;28;19992;-67
2022/07/06 01:21:27;;;;;;;;;;;;;;;9.46;50.29;96268.38;5040930;28;20269;-67
2022/07/06 01:23:52;;;;;;;;;;;;;;;9.46;50.40;96276.34;5042995;28;19988;-67
2022/07/06 01:26:21;;;;;;;;;;;;;;;9.39;50.59;96269.97;5044366;28;19993;-68
2022/07/06 01:28:46;;;;;;;;;;;;;;;9.42;50.62;96273.16;5045422;28;19976;-67
2022/07/06 01:31:15;;;;;;;;;;;;;;;9.35;50.83;96268.63;5044122;28;19985;-67
2022/07/06 01:33:40;;;;;;;;;;;;;;;9.69;49.54;96266.03;5045517;28;20012;-67
2022/07/06 01:36:05;;;;;;;;;;;;;;;9.94;49.11;96254.72;5044121;28;20503;-68
2022/07/06 01:38:31;;;;;;;;;;;;;;;10.28;48.31;96266.34;5044256;28;20369;-68
2022/07/06 01:40:56;;;;;;;;;;;;;;;10.42;47.83;96257.78;5044564;28;19997;-68
2022/07/06 01:43:21;;;;;;;;;;;;;;;10.83;46.70;96257.03;5044245;28;19993;-67
2022/07/06 01:45:46;;;;;;;;;;;;;;;11.12;46.25;96253.09;5044908;28;20072;-68
2022/07/06 01:48:12;;;;;;;;;;;;;;;11.01;46.56;96258.72;5044440;28;20083;-68
2022/07/06 01:50:37;;;;;;;;;;;;;;;11.41;45.96;96256.25;5043986;28;19992;-68
2022/07/06 01:53:02;;;;;;;;;;;;;;;11.87;44.91;96254.88;5043393;28;19969;-68
2022/07/06 01:55:27;;;;;;;;;;;;;;;12.18;44.07;96256.81;5042434;28;19985;-67
2022/07/06 01:57:52;;;;;;;;;;;;;;;12.35;43.37;96256.72;5044446;28;20024;-68
2022/07/06 02:00:18;;;;;;;;;;;;;;;12.54;43.57;96245.63;5043570;28;20110;-68
2022/07/06 02:02:43;;;;;;;;;;;;;;;12.52;43.52;96244.97;5044159;28;19996;-68
2022/07/06 02:05:08;;;;;;;;;;;;;;;12.59;43.32;96242.44;5043934;28;19984;-67
2022/07/06 02:07:33;;;;;;;;;;;;;;;12.65;43.03;96240.91;5044031;28;19989;-68
2022/07/06 02:09:59;;;;;;;;;;;;;;;12.64;43.00;96241.88;5044115;28;19977;-68
2022/07/06 02:12:24;;;;;;;;;;;;;;;12.57;43.37;96244.44;5043943;28;20492;-69
2022/07/06 02:14:49;;;;;;;;;;;;;;;12.52;43.45;96246.81;5043550;28;20079;-67
2022/07/06 02:17:14;;;;;;;;;;;;;;;12.26;43.96;96248.75;5044150;28;20072;-68
2022/07/06 02:19:40;;;;;;;;;;;;;;;11.82;45.48;96250.03;5043923;28;19997;-68
2022/07/06 02:22:05;;;;;;;;;;;;;;;11.44;46.32;96244.44;5043809;28;19981;-67
2022/07/06 02:24:30;;;;;;;;;;;;;;;11.22;46.73;96247.59;5043440;28;20441;-68
2022/07/06 02:26:55;;;;;;;;;;;;;;;10.93;47.46;96258.72;5043537;28;19992;-68
2022/07/06 02:29:21;;;;;;;;;;;;;;;10.91;47.51;96255.41;5043468;28;19977;-68
2022/07/06 02:31:46;;;;;;;;;;;;;;;10.67;48.09;96255.16;5042206;28;19993;-66
2022/07/06 02:34:11;;;;;;;;;;;;;;;10.08;50.21;96250.66;5043105;28;20241;-69
2022/07/06 02:36:37;;;;;;;;;;;;;;;9.65;51.57;96255.88;5043614;28;19988;-68
2022/07/06 02:39:02;;;;;;;;;;;;;;;9.15;53.03;96256.31;5042920;28;20001;-69
2022/07/06 02:41:27;;;;;;;;;;;;;;;9.11;53.33;96262.13;5043716;28;19969;-67
2022/07/06 02:43:52;;;;;;;;;;;;;;;9.30;52.92;96256.63;5042805;28;19989;-68
2022/07/06 02:46:18;;;;;;;;;;;;;;;9.11;53.66;96257.63;5042866;28;19977;-68
2022/07/06 02:48:43;;;;;;;;;;;;;;;9.75;51.88;96261.91;5043478;28;19961;-68
2022/07/06 02:51:08;;;;;;;;;;;;;;;10.16;51.12;96253.34;5043644;28;19997;-67
2022/07/06 02:53:33;;;;;;;;;;;;;;;9.76;52.05;96260.09;5043748;28;20422;-67
2022/07/06 02:55:59;;;;;;;;;;;;;;;9.63;52.15;96258.69;5043803;28;20792;-68
2022/07/06 02:58:24;;;;;;;;;;;;;;;9.55;52.34;96262.13;5041919;28;20455;-68
2022/07/06 03:00:49;;;;;;;;;;;;;;;9.50;52.87;96258.25;5043854;28;19996;-66
2022/07/06 03:03:14;;;;;;;;;;;;;;;9.33;53.10;96261.66;5043155;28;20232;-68
2022/07/06 03:05:40;;;;;;;;;;;;;;;9.20;53.34;96261.19;5043887;28;20142;-68
2022/07/06 03:08:05;;;;;;;;;;;;;;;9.14;53.73;96261.78;5040857;28;20007;-68
2022/07/06 03:10:30;;;;;;;;;;;;;;;9.03;53.58;96255.75;5043323;28;20042;-68
2022/07/06 03:12:55;;;;;;;;;;;;;;;9.07;53.46;96253.59;5043181;28;20547;-68
2022/07/06 03:15:21;;;;;;;;;;;;;;;8.76;54.21;96257.44;5043408;28;20024;-68
2022/07/06 03:17:46;;;;;;;;;;;;;;;8.68;54.50;96265.34;5043102;28;19973;-68
2022/07/06 03:20:11;;;;;;;;;;;;;;;9.04;53.27;96260.06;5042932;28;20001;-68
2022/07/06 03:22:36;;;;;;;;;;;;;;;8.58;55.15;96265.41;5042831;28;20472;-67
2022/07/06 03:25:02;;;;;;;;;;;;;;;8.65;54.40;96265.63;5043305;28;20336;-67
2022/07/06 03:27:27;;;;;;;;;;;;;;;8.43;55.09;96263.25;5042335;28;20003;-69
2022/07/06 03:29:52;;;;;;;;;;;;;;;8.67;54.77;96253.06;5042868;28;19996;-66
2022/07/06 03:32:17;;;;;;;;;;;;;;;8.39;55.40;96263.69;5042516;28;19989;-67
2022/07/06 03:34:43;;;;;;;;;;;;;;;8.22;56.17;96263.50;5042564;28;20340;-70
2022/07/06 03:37:08;;;;;;;;;;;;;;;8.12;56.02;96258.22;5043236;28;19976;-67
2022/07/06 03:39:33;;;;;;;;;;;;;;;7.97;56.67;96263.19;5042331;28;19997;-66
2022/07/06 03:41:58;;;;;;;;;;;;;;;7.73;57.31;96259.19;5043311;28;20067;-68
2022/07/06 03:44:24;;;;;;;;;;;;;;;7.48;58.39;96268.59;5042440;28;20592;-68
2022/07/06 03:46:50;;;;;;;;;;;;;;;7.14;59.76;96272.53;5042072;28;20015;-68
2022/07/06 03:49:16;;;;;;;;;;;;;;;6.81;61.17;96283.41;5042794;28;19973;-70
2022/07/06 03:51:41;;;;;;;;;;;;;;;7.07;60.18;96282.03;5042735;28;20051;-67
2022/07/06 03:54:06;;;;;;;;;;;;;;;7.00;60.66;96289.66;5042586;28;20068;-66
2022/07/06 03:56:32;;;;;;;;;;;;;;;7.22;60.30;96285.06;5042378;28;20020;-68
2022/07/06 03:58:59;;;;;;;;;;;;;;;7.38;59.55;96285.34;5041856;28;20083;-68
2022/07/06 04:01:24;;;;;;;;;;;;;;;7.56;59.22;96292.56;5041374;28;19965;-69
2022/07/06 04:03:49;;;;;;;;;;;;;;;8.15;57.07;96288.94;5042356;28;20000;-69
2022/07/06 04:06:15;;;;;;;;;;;;;;;8.37;56.27;96285.06;5041479;28;20473;-68
2022/07/06 04:08:40;;;;;;;;;;;;;;;8.95;54.27;96292.84;5042355;28;19965;-68
2022/07/06 04:11:05;;;;;;;;;;;;;;;9.18;53.44;96290.56;5041481;28;19992;-69
2022/07/06 04:13:30;;;;;;;;;;;;;;;9.41;52.72;96287.44;5042783;28;19969;-67
2022/07/06 04:15:56;;;;;;;;;;;;;;;9.90;50.37;96295.91;5040605;28;20404;-69
2022/07/06 04:18:21;;;;;;;;;;;;;;;9.83;51.12;96293.06;5042333;28;19983;-68
2022/07/06 04:20:46;;;;;;;;;;;;;;;9.74;50.72;96292.16;5041906;28;19989;-67
2022/07/06 04:23:11;;;;;;;;;;;;;;;10.14;49.49;96292.59;5041148;28;19993;-68
2022/07/06 04:25:37;;;;;;;;;;;;;;;10.44;48.69;96294.88;5042596;28;20454;-68
2022/07/06 04:28:02;;;;;;;;;;;;;;;10.41;48.55;96297.84;5040342;28;20350;-68
2022/07/06 04:30:27;;;;;;;;;;;;;;;9.95;49.84;96305.09;5041490;28;20290;-68
2022/07/06 04:32:52;;;;;;;;;;;;;;;10.46;48.60;96301.72;5041983;28;20342;-69
2022/07/06 04:35:18;;;;;;;;;;;;;;;10.64;48.39;96302.59;5042044;28;19993;-70
2022/07/06 04:37:45;;;;;;;;;;;;;;;10.91;47.49;96303.34;5041673;28;19969;-70
2022/07/06 04:40:10;;;;;;;;;;;;;;;10.77;47.94;96307.47;5041780;28;20054;-67
2022/07/06 04:42:37;;;;;;;;;;;;;;;10.52;48.76;96302.91;5041900;28;20001;-69
2022/07/06 04:45:02;;;;;;;;;;;;;;;10.77;48.43;96302.16;5042124;28;19976;-69
2022/07/06 04:47:27;;;;;;;;;;;;;;;10.62;48.49;96300.09;5041577;28;19995;-70
2022/07/06 04:49:52;;;;;;;;;;;;;;;10.66;48.55;96300.59;5041842;28;20426;-68
2022/07/06 04:52:18;;;;;;;;;;;;;;;10.38;49.22;96298.16;5041586;28;20000;-70
2022/07/06 04:54:43;;;;;;;;;;;;;;;10.34;49.45;96297.66;5041174;28;20490;-69
2022/07/06 04:57:08;;;;;;;;;;;;;;;10.43;49.49;96301.19;5043400;28;19977;-68
2022/07/06 04:59:34;;;;;;;;;;;;;;;10.68;48.72;96303.94;5044866;28;19996;-69
2022/07/06 05:01:59;;;;;;;;;;;;;;;10.61;49.13;96309.09;5044508;28;20027;-69
2022/07/06 05:04:24;;;;;;;;;;;;;;;10.27;49.52;96308.09;5045356;28;19996;-69
2022/07/06 05:06:49;;;;;;;;;;;;;;;10.47;49.09;96303.38;5044969;28;19996;-68
2022/07/06 05:09:15;;;;;;;;;;;;;;;11.05;47.94;96308.00;5045210;28;20258;-67
2022/07/06 05:11:40;;;;;;;;;;;;;;;10.73;48.31;96312.28;5044734;28;19992;-70
2022/07/06 05:14:05;;;;;;;;;;;;;;;10.85;48.37;96305.66;5045515;28;19973;-69
2022/07/06 05:16:31;;;;;;;;;;;;;;;10.71;48.58;96303.63;5045792;28;19989;-69
2022/07/06 05:18:56;;;;;;;;;;;;;;;11.09;47.50;96301.38;5044899;28;19993;-68
2022/07/06 05:21:21;;;;;;;;;;;;;;;11.16;47.33;96300.75;5042991;28;20788;-69
2022/07/06 05:23:47;;;;;;;;;;;;;;;10.92;47.91;96302.34;5045050;28;20723;-68
2022/07/06 05:26:12;;;;;;;;;;;;;;;10.66;48.84;96306.78;5045413;28;20318;-70
2022/07/06 05:28:37;;;;;;;;;;;;;;;10.92;48.07;96311.19;5039576;28;20582;-68
2022/07/06 05:31:02;;;;;;;;;;;;;;;11.27;46.02;96308.41;5041024;28;19989;-68
2022/07/06 05:33:28;;;;;;;;;;;;;;;10.92;47.10;96313.00;5041987;28;20003;-69
2022/07/06 05:35:53;;;;;;;;;;;;;;;10.79;47.91;96330.28;5042141;28;20454;-69
2022/07/06 05:38:19;;;;;;;;;;;;;;;10.94;47.36;96330.47;5041036;28;20031;-67
2022/07/06 05:40:44;;;;;;;;;;;;;;;11.11;46.96;96326.06;5039483;28;19993;-69
2022/07/06 05:43:09;;;;;;;;;;;;;;;11.38;46.27;96320.56;5040007;28;20128;-69
2022/07/06 05:45:35;;;;;;;;;;;;;;;11.59;45.16;96324.59;5040832;28;20632;-67
2022/07/06 05:50:44;;;;;;;;;;;;;;;11.33;46.25;96328.25;5038826;28;20008;-67
2022/07/06 05:53:09;;;;;;;;;;;;;;;11.02;47.54;96331.50;5037842;28;19969;-68
2022/07/06 05:55:34;;;;;;;;;;;;;;;11.44;45.88;96329.75;5039255;28;20008;-67
2022/07/06 05:57:59;;;;;;;;;;;;;;;11.15;46.08;96337.19;5038805;28;19973;-66
2022/07/06 06:00:25;;;;;;;;;;;;;;;11.11;46.61;96336.72;5039835;28;19993;-67
2022/07/06 06:02:50;;;;;;;;;;;;;;;10.85;47.31;96337.59;5035130;28;19989;-67
2022/07/06 06:05:16;;;;;;;;;;;;;;;11.05;46.40;96337.31;5036151;28;20099;-68
2022/07/06 06:07:41;;;;;;;;;;;;;;;11.26;46.04;96333.41;5038127;28;20159;-67
2022/07/06 06:10:07;;;;;;;;;;;;;;;11.29;46.62;96330.38;5038502;28;19984;-67
2022/07/06 06:12:32;;;;;;;;;;;;;;;11.64;45.48;96340.91;5039036;28;19969;-67
2022/07/06 06:14:58;;;;;;;;;;;;;;;11.89;44.92;96324.88;5039820;28;20000;-67
2022/07/06 06:17:23;;;;;;;;;;;;;;;11.73;45.20;96331.09;5039522;28;19989;-68
2022/07/06 06:19:48;;;;;;;;;;;;;;;11.87;44.82;96340.25;5036905;28;20527;-66
2022/07/06 06:22:13;;;;;;;;;;;;;;;12.74;42.37;96332.50;5037418;28;20402;-67
2022/07/06 06:24:39;;;;;;;;;;;;;;;12.97;42.36;96329.03;5037916;28;20490;-69
2022/07/06 06:27:04;;;;;;;;;;;;;;;13.10;41.48;96329.34;5038275;28;19997;-68
2022/07/06 06:29:29;;;;;;;;;;;;;;;13.35;39.64;96321.16;5040107;28;20722;-71
2022/07/06 06:31:54;;;;;;;;;;;;;;;13.26;41.08;96327.56;5039240;28;20024;-71
2022/07/06 06:34:20;;;;;;;;;;;;;;;13.11;40.77;96332.84;5039066;28;19979;-71
2022/07/06 06:36:45;;;;;;;;;;;;;;;13.40;39.36;96340.16;5037351;28;20063;-69
2022/07/06 06:39:10;;;;;;;;;;;;;;;12.53;41.56;96332.09;5038485;28;20577;-71
2022/07/06 06:41:35;;;;;;;;;;;;;;;12.79;41.48;96336.31;5039298;28;20086;-68
2022/07/06 06:44:01;;;;;;;;;;;;;;;12.90;40.43;96336.94;5037852;28;20034;-69
2022/07/06 06:46:26;;;;;;;;;;;;;;;12.70;41.40;96339.19;5039812;28;19993;-68
2022/07/06 06:48:51;;;;;;;;;;;;;;;12.75;40.74;96335.00;5039105;28;20396;-68
2022/07/06 06:51:16;;;;;;;;;;;;;;;12.58;41.63;96342.25;5038807;28;20031;-69
2022/07/06 06:53:42;;;;;;;;;;;;;;;12.38;42.54;96353.34;5037311;28;20013;-69
2022/07/06 06:56:08;;;;;;;;;;;;;;;12.22;43.08;96361.38;5039922;28;20646;-70
2022/07/06 06:58:33;;;;;;;;;;;;;;;11.82;43.50;96356.75;5037309;28;20046;-68
2022/07/06 07:00:59;;;;;;;;;;;;;;;12.05;43.70;96358.72;5038487;28;20008;-69
2022/07/06 07:03:24;;;;;;;;;;;;;;;12.12;42.68;96364.25;5036572;28;20109;-70
2022/07/06 07:05:49;;;;;;;;;;;;;;;11.68;42.96;96362.75;5038870;28;20361;-70
2022/07/06 07:08:15;;;;;;;;;;;;;;;11.23;44.06;96371.88;5037232;28;19989;-71
2022/07/06 07:10:40;;;;;;;;;;;;;;;11.42;44.22;96374.41;5037079;28;19993;-70
2022/07/06 07:13:05;;;;;;;;;;;;;;;11.52;44.39;96369.75;5036741;28;20513;-70
2022/07/06 07:15:30;;;;;;;;;;;;;;;11.12;44.58;96375.69;5039253;28;20143;-69
2022/07/06 07:17:56;;;;;;;;;;;;;;;11.22;45.01;96372.06;5038150;28;19973;-69
2022/07/06 07:20:21;;;;;;;;;;;;;;;10.39;46.07;96391.19;5034232;28;20015;-71
2022/07/06 07:22:46;;;;;;;;;;;;;;;10.69;45.20;96375.69;5053798;28;20024;-70
2022/07/06 07:25:11;;;;;;;;;;;;;;;10.98;44.26;96378.97;5039614;28;20292;-70
2022/07/06 07:27:37;;;;;;;;;;;;;;;11.08;44.04;96379.63;5036628;28;20581;-70
2022/07/06 07:30:02;;;;;;;;;;;;;;;11.62;43.09;96369.56;5038591;28;20000;-69
2022/07/06 07:32:27;;;;;;;;;;;;;;;11.17;44.22;96383.19;5038042;28;20019;-69
2022/07/06 07:34:53;;;;;;;;;;;;;;;10.86;44.62;96376.59;5038567;28;20058;-69
2022/07/06 07:37:18;;;;;;;;;;;;;;;10.66;45.30;96380.47;5039414;28;19977;-69
2022/07/06 07:39:43;;;;;;;;;;;;;;;11.20;43.84;96382.88;5035923;28;20487;-69
2022/07/06 07:42:09;;;;;;;;;;;;;;;11.55;44.19;96385.41;5038658;28;20455;-69
2022/07/06 07:44:34;;;;;;;;;;;;;;;11.20;43.67;96382.88;5038471;28;20079;-71
2022/07/06 07:46:59;;;;;;;;;;;;;;;11.03;43.85;96386.44;5037566;28;20003;-70
2022/07/06 07:49:24;;;;;;;;;;;;;;;11.06;44.75;96394.97;5041338;28;19977;-70
2022/07/06 07:51:50;;;;;;;;;;;;;;;10.22;45.80;96392.91;5039744;28;19997;-71
2022/07/06 07:54:15;;;;;;;;;;;;;;;10.08;47.07;96399.63;5039525;28;19965;-70
2022/07/06 07:56:40;;;;;;;;;;;;;;;10.87;45.23;96398.72;5041966;28;19973;-70
2022/07/06 07:59:06;;;;;;;;;;;;;;;10.61;45.46;96399.63;5040607;28;20028;-70
2022/07/06 08:01:31;;;;;;;;;;;;;;;11.38;43.08;96395.22;5041956;28;20031;-70
2022/07/06 08:03:57;;;;;;;;;;;;;;;11.60;42.44;96385.75;5041075;28;19993;-72
2022/07/06 08:06:22;;;;;;;;;;;;;;;12.50;40.56;96379.66;5042180;28;19977;-70
2022/07/06 08:08:47;;;;;;;;;;;;;;;12.63;39.59;96382.66;5038265;28;20009;-69
2022/07/06 08:11:13;;;;;;;;;;;;;;;13.27;39.61;96372.84;5040627;28;19989;-70
2022/07/06 08:13:38;;;;;;;;;;;;;;;14.40;36.89;96374.13;5041060;28;19969;-70
2022/07/06 08:16:03;;;;;;;;;;;;;;;14.91;34.61;96377.06;5038986;28;20484;-69
2022/07/06 08:18:29;;;;;;;;;;;;;;;13.85;37.16;96382.31;5039792;28;20079;-72
2022/07/06 08:20:56;;;;;;;;;;;;;;;13.04;37.67;96391.53;5038405;28;19986;-71
2022/07/06 08:23:21;;;;;;;;;;;;;;;13.87;38.24;96385.63;5038927;28;20357;-73
2022/07/06 08:25:47;;;;;;;;;;;;;;;13.68;37.06;96384.28;5039045;28;19973;-72
2022/07/06 08:28:12;;;;;;;;;;;;;;;14.17;35.77;96391.06;5041609;28;19997;-75
2022/07/06 08:30:37;;;;;;;;;;;;;;;13.39;36.56;96375.94;5039588;28;20477;-75
2022/07/06 08:33:02;;;;;;;;;;;;;;;14.07;37.42;96377.94;5040410;28;19973;-75
2022/07/06 08:35:28;;;;;;;;;;;;;;;14.08;36.43;96370.75;5041574;28;20020;-74
2022/07/06 08:37:53;;;;;;;;;;;;;;;14.94;35.25;96368.66;5042133;28;20008;-74
2022/07/06 08:40:18;;;;;;;;;;;;;;;15.31;34.95;96371.34;5041669;28;20001;-75
2022/07/06 08:42:43;;;;;;;;;;;;;;;16.35;31.78;96377.25;5038077;28;20572;-74
2022/07/06 08:45:09;;;;;;;;;;;;;;;16.33;31.26;96373.91;5040367;28;20476;-74
2022/07/06 08:47:35;;;;;;;;;;;;;;;15.31;33.17;96379.38;5041437;28;20325;-75
2022/07/06 08:50:00;;;;;;;;;;;;;;;15.60;32.34;96385.69;5039150;28;20014;-75
2022/07/06 08:52:26;;;;;;;;;;;;;;;15.29;32.69;96378.72;5037585;28;20461;-74
2022/07/06 08:54:51;;;;;;;;;;;;;;;15.53;32.57;96382.09;5039716;28;19997;-75
2022/07/06 08:57:16;;;;;;;;;;;;;;;14.55;34.62;96384.81;5036818;28;20496;-74
2022/07/06 08:59:41;;;;;;;;;;;;;;;14.35;34.88;96381.88;5039037;28;20587;-73
2022/07/06 09:02:07;;;;;;;;;;;;;;;13.66;35.58;96384.44;5041506;28;19977;-74
2022/07/06 09:04:32;;;;;;;;;;;;;;;14.09;34.79;96380.44;5039901;28;19996;-74
2022/07/06 09:06:57;;;;;;;;;;;;;;;14.57;34.17;96376.59;5038623;28;19993;-75
2022/07/06 09:09:23;;;;;;;;;;;;;;;15.04;33.64;96382.59;5042004;28;19981;-74
2022/07/06 09:11:48;;;;;;;;;;;;;;;15.55;32.87;96382.72;5039509;28;20015;-74
2022/07/06 09:14:13;;;;;;;;;;;;;;;16.21;32.00;96370.09;5040209;28;19969;-75
2022/07/06 09:16:39;;;;;;;;;;;;;;;16.39;31.19;96383.88;5040532;28;19969;-75
2022/07/06 09:19:05;;;;;;;;;;;;;;;15.87;31.09;96370.66;5040341;28;20559;-74
2022/07/06 09:21:31;;;;;;;;;;;;;;;15.10;32.43;96381.03;5037772;28;20136;-74
2022/07/06 09:23:57;;;;;;;;;;;;;;;15.13;32.73;96386.00;5039868;28;20453;-75
2022/07/06 09:26:22;;;;;;;;;;;;;;;14.88;33.36;96385.47;5038633;28;19973;-75
2022/07/06 09:28:48;;;;;;;;;;;;;;;15.04;34.20;96385.28;5039288;28;19973;-75
2022/07/06 09:31:13;;;;;;;;;;;;;;;14.52;34.70;96393.22;5037108;28;19985;-74
2022/07/06 09:33:38;;;;;;;;;;;;;;;14.63;34.80;96397.31;5040585;28;20016;-74
2022/07/06 09:36:05;;;;;;;;;;;;;;;14.62;34.65;96394.81;5036733;28;19989;-75
2022/07/06 09:38:30;;;;;;;;;;;;;;;14.94;35.00;96396.31;5036375;28;19997;-75
2022/07/06 09:40:56;;;;;;;;;;;;;;;15.06;34.48;96401.19;5020235;28;19989;-75
2022/07/06 09:43:22;;;;;;;;;;;;;;;15.12;34.36;96392.38;5038391;28;20021;-75
2022/07/06 09:45:54;;;;;;;;;;;;;;;15.58;33.45;96383.22;5042480;28;19965;-78
2022/07/06 09:48:22;;;;;;;;;;;;;;;15.59;33.53;96395.59;5026356;28;19993;-78
2022/07/06 09:50:52;;;;;;;;;;;;;;;15.85;31.91;96388.00;5025738;28;20038;-78
2022/07/06 09:53:18;;;;;;;;;;;;;;;16.21;32.48;96389.72;5043330;28;20418;-78
2022/07/06 09:55:44;;;;;;;;;;;;;;;16.62;30.96;96385.47;5040719;28;20000;-78
2022/07/06 09:58:09;;;;;;;;;;;;;;;16.17;32.61;96390.31;5042853;28;20026;-78
2022/07/06 10:00:35;;;;;;;;;;;;;;;15.75;33.74;96386.44;5043088;28;19997;-78
2022/07/06 10:03:00;;;;;;;;;;;;;;;16.16;32.43;96394.88;5043051;28;19989;-78
2022/07/06 10:05:31;;;;;;;;;;;;;;;15.59;33.65;96390.25;5026491;28;19965;-78
2022/07/06 10:08:00;;;;;;;;;;;;;;;15.46;34.25;96385.53;5041960;28;19996;-78
2022/07/06 10:10:26;;;;;;;;;;;;;;;15.98;32.48;96385.41;5042460;28;20023;-76
2022/07/06 10:12:51;;;;;;;;;;;;;;;16.51;32.49;96378.81;5043041;28;20407;-76
2022/07/06 10:15:18;;;;;;;;;;;;;;;17.03;30.57;96378.44;5042643;28;19989;-75
2022/07/06 10:17:43;;;;;;;;;;;;;;;16.10;31.46;96375.00;5043396;28;19974;-77
2022/07/06 10:20:08;;;;;;;;;;;;;;;15.82;32.72;96378.47;5042340;28;20300;-77
2022/07/06 10:22:34;;;;;;;;;;;;;;;16.62;32.45;96379.25;5024658;28;19989;-77
2022/07/06 10:24:59;;;;;;;;;;;;;;;16.98;30.67;96370.16;5042234;28;20048;-77
2022/07/06 10:27:25;;;;;;;;;;;;;;;17.83;28.88;96372.63;5024998;28;19993;-78
2022/07/06 10:29:50;;;;;;;;;;;;;;;17.95;26.14;96367.50;5025200;28;20028;-78
2022/07/06 10:32:18;;;;;;;;;;;;;;;18.12;27.87;96373.31;5043828;28;20257;-79
2022/07/06 10:34:44;;;;;;;;;;;;;;;18.30;27.77;96372.66;5042608;28;20711;-79
2022/07/06 10:37:09;;;;;;;;;;;;;;;17.92;28.05;96384.91;5044293;28;19976;-78
2022/07/06 10:42:37;;;;;;;;;;;;;;;16.98;29.22;96383.59;5043971;28;20450;-79
2022/07/06 10:45:02;;;;;;;;;;;;;;;15.68;33.33;96404.38;5044035;28;20449;-77
2022/07/06 10:47:28;;;;;;;;;;;;;;;15.69;32.94;96399.81;5043277;28;19993;-78
2022/07/06 10:49:53;;;;;;;;;;;;;;;16.03;32.03;96392.91;5043781;28;20039;-77
2022/07/06 10:52:18;;;;;;;;;;;;;;;16.23;30.85;96389.53;5041831;28;20250;-78
2022/07/06 10:54:43;;;;;;;;;;;;;;;16.63;30.72;96387.13;5041464;28;20122;-77
2022/07/06 10:57:10;;;;;;;;;;;;;;;16.55;31.71;96387.28;5042715;28;19977;-78
2022/07/06 10:59:35;;;;;;;;;;;;;;;16.99;31.89;96387.94;5041784;28;20453;-78
2022/07/06 11:02:19;;;;;;;;;;;;;;;17.52;30.55;96385.66;5042377;28;20024;-78
2022/07/06 11:04:46;;;;;;;;;;;;;;;18.03;27.73;96372.69;5042257;28;20039;-78
2022/07/06 11:07:12;;;;;;;;;;;;;;;18.43;29.38;96379.91;5040108;28;19981;-77
2022/07/06 11:09:38;;;;;;;;;;;;;;;19.23;27.78;96383.41;5043633;28;19992;-77
2022/07/06 11:12:18;;;;;;;;;;;;;;;19.72;25.48;96385.66;5041165;28;19996;-76
2022/07/06 11:14:43;;;;;;;;;;;;;;;19.16;24.61;96379.91;5042714;28;19989;-77
2022/07/06 11:17:11;;;;;;;;;;;;;;;19.87;25.76;96368.28;5040957;28;19975;-77
2022/07/06 11:19:37;;;;;;;;;;;;;;;20.31;26.44;96376.47;5042515;28;19996;-77
2022/07/06 11:22:06;;;;;;;;;;;;;;;20.65;24.37;96384.28;5041134;28;19990;-78
2022/07/06 11:24:32;;;;;;;;;;;;;;;20.50;25.19;96380.03;5041936;28;20005;-78
2022/07/06 11:26:57;;;;;;;;;;;;;;;19.49;25.61;96375.41;5041796;28;19989;-78
2022/07/06 11:29:23;;;;;;;;;;;;;;;18.97;26.19;96384.34;5042729;28;19973;-78
2022/07/06 11:31:49;;;;;;;;;;;;;;;19.25;26.85;96381.31;5043608;28;20483;-78
2022/07/06 11:34:18;;;;;;;;;;;;;;;19.44;25.82;96386.84;5042114;28;19972;-79
2022/07/06 11:36:43;;;;;;;;;;;;;;;17.87;27.28;96382.81;5040807;28;20016;-78
2022/07/06 11:39:09;;;;;;;;;;;;;;;17.86;28.72;96391.09;5041991;28;20068;-78
2022/07/06 11:41:34;;;;;;;;;;;;;;;17.38;29.85;96385.59;5042422;28;20080;-78
2022/07/06 11:43:59;;;;;;;;;;;;;;;16.64;30.15;96387.97;5040218;28;20394;-77
2022/07/06 11:46:26;;;;;;;;;;;;;;;16.80;30.46;96372.53;5042143;28;20031;-78
2022/07/06 11:48:57;;;;;;;;;;;;;;;17.39;28.31;96376.50;5041943;28;20460;-77
2022/07/06 11:51:26;;;;;;;;;;;;;;;16.60;30.46;96378.66;5041251;28;20046;-78
2022/07/06 11:53:52;;;;;;;;;;;;;;;16.88;29.08;96369.69;5025255;28;20060;-77
2022/07/06 11:56:27;;;;;;;;;;;;;;;16.84;30.27;96376.50;5040390;28;20031;-77
2022/07/06 11:59:01;;;;;;;;;;;;;;;16.65;29.29;96376.19;5040040;28;20636;-78
2022/07/06 12:01:27;;;;;;;;;;;;;;;16.20;29.59;96385.38;5040083;28;20273;-78
2022/07/06 12:03:53;;;;;;;;;;;;;;;17.10;28.81;96377.63;5040670;28;20028;-77
2022/07/06 12:06:21;;;;;;;;;;;;;;;16.96;28.46;96382.94;5039200;28;20075;-78
2022/07/06 12:08:50;;;;;;;;;;;;;;;17.57;27.94;96383.16;5040983;28;19979;-79
2022/07/06 12:11:19;;;;;;;;;;;;;;;16.08;28.53;96386.94;5039832;28;20346;-78
2022/07/06 12:13:45;;;;;;;;;;;;;;;16.34;28.57;96377.41;5040125;28;19979;-77
2022/07/06 12:16:11;;;;;;;;;;;;;;;17.31;28.51;96365.09;5041455;28;20365;-77
2022/07/06 12:18:37;;;;;;;;;;;;;;;17.37;29.39;96367.00;5041658;28;20043;-77
2022/07/06 12:21:02;;;;;;;;;;;;;;;17.46;27.42;96359.53;5038955;28;19985;-77
2022/07/06 12:23:37;;;;;;;;;;;;;;;17.31;27.34;96357.03;5039967;28;20057;-76
2022/07/06 12:26:02;;;;;;;;;;;;;;;16.44;30.03;96369.88;5041870;28;20019;-76
2022/07/06 12:28:27;;;;;;;;;;;;;;;16.62;28.80;96361.28;5041648;28;20024;-77
2022/07/06 12:30:53;;;;;;;;;;;;;;;17.43;29.40;96358.09;5042870;28;19993;-77
2022/07/06 12:33:18;;;;;;;;;;;;;;;17.23;29.22;96350.78;5040227;28;19969;-77
2022/07/06 12:35:43;;;;;;;;;;;;;;;17.15;28.69;96359.06;5041218;28;20476;-77
2022/07/06 12:38:09;;;;;;;;;;;;;;;17.14;28.16;96355.53;5039338;28;20486;-77
2022/07/06 12:40:35;;;;;;;;;;;;;;;16.99;27.72;96358.34;5038846;28;20008;-78
2022/07/06 12:43:00;;;;;;;;;;;;;;;16.34;29.62;96364.81;5038683;28;20047;-77
2022/07/06 12:45:26;;;;;;;;;;;;;;;16.20;30.57;96358.53;5041826;28;19969;-76
2022/07/06 12:48:01;;;;;;;;;;;;;;;15.70;30.96;96364.72;5040060;28;20357;-76